Main page
METAR-TAF:

Airports :

Lisbon, Portugal

Lisbon Portela Airport

latitude: 38-46N, longitude: 009-08W, elevation: 114 m

Current weather observation

The report was made 21 minutes ago, at 17:00 UTC
Wind 12 kt from the North/Northwest
Temperature 21°C
Humidity 56%
Pressure 1021 hPa
Visibility 10 km or more
Few clouds at a height of 3800 ft

METAR: LPPT 251700Z 33012KT 9999 FEW038 21/12 Q1021

Time: 18:21 (17:21 UTC)

Forecast

The report was made 6 hours and 21 minutes ago, at 11:00 UTC
Forecast valid from 25 at 12 UTC to 26 at 18 UTC
Wind 10 kt from the North
Visibility 10 km or more
no clouds below 1500 m and no cumulonimbus
Becoming
from 25 at 15 UTC to 25 at 17 UTC
Wind 15 kt from the North/Northwest

TAF: LPPT 251100Z 2512/2618 35010KT CAVOK BECMG 2515/2517 34015KT

METAR-TAF

Weather observations and forecasts of more than 4000 airports (METAR and TAF reports).

The available stations are represented by yellow and red dots on the map.

Hover mouse over dot to see the name of the station.

Then click to see weather observations and forecasts.

To change the map : click on the green buttons with a black cross to zoom in, on the green button with a dash to zoom out, or on the green arrows for adjacent maps.


METAR-TAF: